createdAt,value
2023-01-13T00:00:19.744Z,99250.88
2023-01-13T00:03:22.161Z,99260.03
2023-01-13T00:06:29.284Z,99248.31
2023-01-13T00:09:30.842Z,99253.94
2023-01-13T00:12:32.442Z,99240.41
2023-01-13T00:15:34.226Z,99234.16
2023-01-13T00:18:36.921Z,99234.97
2023-01-13T00:21:38.530Z,99248.72
2023-01-13T00:24:40.071Z,99230.78
2023-01-13T00:27:41.903Z,99235.34
2023-01-13T00:30:43.428Z,99223.66
2023-01-13T00:33:45.415Z,99205.72
2023-01-13T00:36:46.952Z,99194.06
2023-01-13T00:39:48.520Z,99197.78
2023-01-13T00:43:08.552Z,99211.31
2023-01-13T00:46:12.617Z,99211.31
2023-01-13T00:49:14.156Z,99205.28
2023-01-13T00:52:16.279Z,99189.19
2023-01-13T00:55:17.847Z,99189.19
2023-01-13T00:58:19.348Z,99192.06
2023-01-13T01:01:22.831Z,99194.78
2023-01-13T01:04:24.432Z,99198.53
2023-01-13T01:07:25.930Z,99207.50
2023-01-13T01:10:27.519Z,99197.69
2023-01-13T01:13:29.253Z,99192.28
2023-01-13T01:16:32.143Z,99194.97
2023-01-13T01:19:37.334Z,99199.75
2023-01-13T01:22:38.840Z,99211.41
2023-01-13T01:25:40.367Z,99215.34
2023-01-13T01:28:42.880Z,99205.34
2023-01-13T01:31:44.700Z,99204.50
2023-01-13T01:34:46.277Z,99193.00
2023-01-13T01:37:47.789Z,99200.13
2023-01-13T01:40:49.614Z,99200.28
2023-01-13T01:44:06.992Z,99204.88
2023-01-13T01:47:14.527Z,99209.25
2023-01-13T01:50:17.492Z,99209.25
2023-01-13T01:53:20.615Z,99212.16
2023-01-13T01:56:22.342Z,99196.91
2023-01-13T01:59:25.558Z,99209.47
2023-01-13T02:02:30.738Z,99214.03
2023-01-13T02:05:34.293Z,99206.09
2023-01-13T02:08:38.649Z,99206.91
2023-01-13T02:11:58.745Z,99208.78
2023-01-13T02:15:17.590Z,99192.53
2023-01-13T02:18:46.932Z,99191.72
2023-01-13T02:22:07.157Z,99191.72
2023-01-13T02:25:25.587Z,99187.28
2023-01-13T02:29:14.201Z,99183.75
2023-01-13T02:32:33.119Z,99204.59
2023-01-13T02:35:43.715Z,99205.78
2023-01-13T02:38:52.508Z,99208.34
2023-01-13T02:42:26.018Z,99207.47
2023-01-13T02:45:36.965Z,99220.16
2023-01-13T02:48:39.719Z,99223.91
2023-01-13T02:51:44.270Z,99228.50
2023-01-13T02:54:54.150Z,99236.63
2023-01-13T02:57:59.447Z,99238.47
2023-01-13T03:01:01.042Z,99243.25
2023-01-13T03:04:35.380Z,99232.22
2023-01-13T03:07:42.589Z,99236.81
2023-01-13T03:11:01.272Z,99236.81
2023-01-13T03:14:11.598Z,99223.81
2023-01-13T03:17:36.129Z,99209.06
2023-01-13T03:20:44.029Z,99227.16
2023-01-13T03:23:54.517Z,99240.72
2023-01-13T03:27:05.974Z,99232.59
2023-01-13T03:30:13.609Z,99251.72
2023-01-13T03:33:23.831Z,99238.19
2023-01-13T03:36:28.021Z,99238.38
2023-01-13T03:39:34.848Z,99230.25
2023-01-13T03:42:39.317Z,99233.81
2023-01-13T03:45:43.268Z,99235.84
2023-01-13T03:48:46.518Z,99227.72
2023-01-13T03:51:55.274Z,99228.56
2023-01-13T03:55:11.825Z,99233.97
2023-01-13T03:58:22.944Z,99234.16
2023-01-13T04:01:45.659Z,99233.13
2023-01-13T04:04:47.171Z,99227.25
2023-01-13T04:07:54.426Z,99218.09
2023-01-13T04:11:20.095Z,99207.25
2023-01-13T04:14:24.518Z,99224.53
2023-01-13T04:17:28.613Z,99230.13
2023-01-13T04:20:30.432Z,99233.69
2023-01-13T04:23:32.848Z,99220.34
2023-01-13T04:26:34.360Z,99241.81
2023-01-13T04:29:35.821Z,99221.16
2023-01-13T04:32:37.324Z,99231.16
2023-01-13T04:35:39.118Z,99227.63
2023-01-13T04:38:40.595Z,99241.16
2023-01-13T04:42:02.278Z,99228.63
2023-01-13T04:45:04.074Z,99226.75
2023-01-13T04:48:05.871Z,99237.59
2023-01-13T04:51:07.406Z,99237.59
2023-01-13T04:54:11.259Z,99243.00
2023-01-13T04:57:12.803Z,99231.53
2023-01-13T05:00:17.224Z,99223.88
2023-01-13T05:03:18.798Z,99222.22
2023-01-13T05:06:20.351Z,99218.63
2023-01-13T05:09:21.824Z,99215.28
2023-01-13T05:12:42.247Z,99217.13
2023-01-13T05:16:02.182Z,99210.88
2023-01-13T05:19:03.756Z,99229.00
2023-01-13T05:22:24.008Z,99215.47
2023-01-13T05:25:27.280Z,99230.88
2023-01-13T05:28:33.511Z,99215.47
2023-01-13T05:31:35.081Z,99219.22
2023-01-13T05:34:36.696Z,99239.16
2023-01-13T05:37:38.322Z,99200.44
2023-01-13T05:40:59.714Z,99213.97
2023-01-13T05:44:01.316Z,99186.06
2023-01-13T05:47:02.769Z,99198.75
2023-01-13T05:50:04.935Z,99213.13
2023-01-13T05:53:06.479Z,99215.84
2023-01-13T05:56:09.150Z,99215.84
2023-01-13T05:59:10.766Z,99213.97
2023-01-13T06:02:12.289Z,99226.47
2023-01-13T06:05:13.912Z,99211.91
2023-01-13T06:08:15.492Z,99213.59
2023-01-13T06:11:16.956Z,99212.59
2023-01-13T06:14:18.411Z,99213.22
2023-01-13T06:17:19.958Z,99208.47
2023-01-13T06:20:21.433Z,99215.59
2023-01-13T06:23:23.601Z,99216.22
2023-01-13T06:26:27.747Z,99213.16
2023-01-13T06:29:29.210Z,99216.72
2023-01-13T06:32:38.834Z,99217.38
2023-01-13T06:35:43.462Z,99210.94
2023-01-13T06:38:49.772Z,99210.75
2023-01-13T06:42:12.568Z,99213.25
2023-01-13T06:45:14.437Z,99201.59
2023-01-13T06:48:17.471Z,99197.00
2023-01-13T06:51:19.004Z,99188.88
2023-01-13T06:54:20.489Z,99204.13
2023-01-13T06:57:21.999Z,99208.69
2023-01-13T07:00:25.319Z,99221.22
2023-01-13T07:03:26.796Z,99220.38
2023-01-13T07:06:28.828Z,99224.94
2023-01-13T07:09:30.399Z,99229.50
2023-01-13T07:12:51.846Z,99231.22
2023-01-13T07:15:54.570Z,99227.63
2023-01-13T07:18:56.227Z,99243.25
2023-01-13T07:21:57.703Z,99249.31
2023-01-13T07:24:59.221Z,99254.91
2023-01-13T07:28:00.735Z,99240.53
2023-01-13T07:31:02.781Z,99249.69
2023-01-13T07:34:05.135Z,99238.84
2023-01-13T07:37:06.645Z,99248.84
2023-01-13T07:40:09.341Z,99246.13
2023-01-13T07:43:31.238Z,99256.13
2023-01-13T07:46:33.717Z,99252.59
2023-01-13T07:49:35.232Z,99241.94
2023-01-13T07:52:36.784Z,99253.78
2023-01-13T07:55:42.735Z,99259.00
2023-01-13T07:58:45.067Z,99251.09
2023-01-13T08:01:46.672Z,99252.09
2023-01-13T08:04:48.347Z,99254.13
2023-01-13T08:07:49.870Z,99260.59
2023-01-13T08:10:51.383Z,99256.84
2023-01-13T08:13:57.204Z,99263.28
2023-01-13T08:16:58.777Z,99266.16
2023-01-13T08:20:00.285Z,99258.25
2023-01-13T08:23:01.935Z,99264.66
2023-01-13T08:26:06.654Z,99263.66
2023-01-13T08:29:08.157Z,99264.03
2023-01-13T08:32:09.645Z,99263.16
2023-01-13T08:35:11.241Z,99275.03
2023-01-13T08:38:12.755Z,99278.78
2023-01-13T08:41:36.370Z,99274.19
2023-01-13T08:44:37.923Z,99273.38
2023-01-13T08:47:39.856Z,99279.63
2023-01-13T08:50:41.378Z,99295.84
2023-01-13T08:53:42.866Z,99288.56
2023-01-13T08:56:45.581Z,99303.16
2023-01-13T08:59:47.462Z,99293.16
2023-01-13T09:02:48.974Z,99296.88
2023-01-13T09:05:50.438Z,99300.44
2023-01-13T09:08:52.059Z,99293.31
2023-01-13T09:12:14.188Z,99286.03
2023-01-13T09:15:18.382Z,99290.44
2023-01-13T09:18:19.933Z,99294.16
2023-01-13T09:21:22.471Z,99296.88
2023-01-13T09:24:24.988Z,99302.28
2023-01-13T09:27:26.485Z,99309.75
2023-01-13T09:30:28.288Z,99303.31
2023-01-13T09:33:48.328Z,99309.75
2023-01-13T09:36:50.624Z,99314.31
2023-01-13T09:39:52.090Z,99314.31
2023-01-13T09:43:17.875Z,99318.06
2023-01-13T09:46:47.395Z,99330.56
2023-01-13T09:49:49.072Z,99335.13
2023-01-13T09:52:50.888Z,99321.78
2023-01-13T09:55:52.965Z,99328.88
2023-01-13T09:58:54.586Z,99324.50
2023-01-13T10:02:30.996Z,99323.47
2023-01-13T10:05:32.454Z,99338.22
2023-01-13T10:08:45.363Z,99329.91
2023-01-13T10:12:07.538Z,99330.91
2023-01-13T10:15:17.290Z,99319.25
2023-01-13T10:18:27.673Z,99340.09
2023-01-13T10:21:48.853Z,99340.09
2023-01-13T10:25:02.596Z,99326.03
2023-01-13T10:28:18.433Z,99326.91
2023-01-13T10:31:22.189Z,99317.25
2023-01-13T10:34:24.930Z,99327.25
2023-01-13T10:37:28.352Z,99321.81
2023-01-13T10:40:29.891Z,99330.13
2023-01-13T10:43:31.917Z,99328.41
2023-01-13T10:46:35.725Z,99321.31
2023-01-13T10:49:38.620Z,99327.56
2023-01-13T10:52:55.178Z,99314.88
2023-01-13T10:56:01.988Z,99316.41
2023-01-13T10:59:13.465Z,99326.25
2023-01-13T11:02:30.522Z,99317.25
2023-01-13T11:05:32.186Z,99327.56
2023-01-13T11:08:45.417Z,99327.78
2023-01-13T11:11:49.533Z,99325.56
2023-01-13T11:14:52.111Z,99325.25
2023-01-13T11:18:35.124Z,99323.31
2023-01-13T11:21:39.282Z,99328.44
2023-01-13T11:24:45.890Z,99327.28
2023-01-13T11:27:55.561Z,99327.66
2023-01-13T11:31:13.275Z,99333.41
2023-01-13T11:34:20.778Z,99338.69
2023-01-13T11:37:39.916Z,99344.06
2023-01-13T11:40:45.913Z,99355.03
2023-01-13T11:43:56.408Z,99344.38
2023-01-13T11:46:58.062Z,99331.91
2023-01-13T11:50:00.999Z,99336.13
2023-01-13T11:53:39.937Z,99347.94
2023-01-13T11:57:19.138Z,99344.56
2023-01-13T12:00:31.742Z,99334.94
2023-01-13T12:03:38.310Z,99337.31
2023-01-13T12:06:41.321Z,99333.22
2023-01-13T12:10:03.468Z,99331.88
2023-01-13T12:13:24.022Z,99330.84
2023-01-13T12:16:28.452Z,99340.31
2023-01-13T12:19:32.287Z,99338.28
2023-01-13T12:22:36.823Z,99332.53
2023-01-13T12:25:45.435Z,99341.13
2023-01-13T12:29:07.631Z,99346.19
2023-01-13T12:32:15.336Z,99346.00
2023-01-13T12:35:37.601Z,99347.69
2023-01-13T12:38:48.003Z,99332.81
2023-01-13T12:42:32.595Z,99347.00
2023-01-13T12:45:34.200Z,99338.91
2023-01-13T12:48:49.256Z,99342.28
2023-01-13T12:51:50.707Z,99344.97
2023-01-13T12:54:53.705Z,99340.41
2023-01-13T12:58:04.297Z,99328.41
2023-01-13T13:01:15.493Z,99344.44
2023-01-13T13:04:41.957Z,99339.91
2023-01-13T13:07:49.518Z,99346.13
2023-01-13T13:11:00.149Z,99340.72
2023-01-13T13:14:13.746Z,99337.84
2023-01-13T13:17:31.610Z,99336.00
2023-01-13T13:20:57.955Z,99348.50
2023-01-13T13:24:04.943Z,99341.22
2023-01-13T13:27:31.454Z,99354.56
2023-01-13T13:30:39.289Z,99354.56
2023-01-13T13:33:58.988Z,99374.19
2023-01-13T13:37:09.779Z,99385.84
2023-01-13T13:40:33.893Z,99379.41
2023-01-13T13:44:00.836Z,99408.16
2023-01-13T13:47:04.054Z,99420.66
2023-01-13T13:50:14.308Z,99412.38
2023-01-13T13:53:19.006Z,99420.28
2023-01-13T13:56:24.312Z,99410.97
2023-01-13T13:59:30.607Z,99418.94
2023-01-13T14:02:36.804Z,99426.03
2023-01-13T14:05:38.327Z,99430.59
2023-01-13T14:08:46.622Z,99436.84
2023-01-13T14:12:02.328Z,99432.94
2023-01-13T14:15:04.192Z,99432.28
2023-01-13T14:18:12.561Z,99435.66
2023-01-13T14:21:19.843Z,99441.91
2023-01-13T14:24:22.486Z,99432.28
2023-01-13T14:27:28.799Z,99428.38
2023-01-13T14:30:31.381Z,99438.34
2023-01-13T14:33:38.881Z,99447.16
2023-01-13T14:36:41.804Z,99440.06
2023-01-13T14:39:43.292Z,99453.59
2023-01-13T14:42:44.796Z,99451.72
2023-01-13T14:46:00.104Z,99453.25
2023-01-13T14:49:02.083Z,99457.97
2023-01-13T14:52:23.727Z,99467.44
2023-01-13T14:55:31.207Z,99469.28
2023-01-13T14:58:32.839Z,99473.84
2023-01-13T15:01:36.478Z,99480.09
2023-01-13T15:04:38.229Z,99487.22
2023-01-13T15:07:39.784Z,99464.53
2023-01-13T15:10:55.043Z,99494.16
2023-01-13T15:14:01.323Z,99493.13
2023-01-13T15:17:03.294Z,99491.44
2023-01-13T15:20:13.441Z,99516.47
2023-01-13T15:23:14.914Z,99520.19
2023-01-13T15:26:21.273Z,99510.03
2023-01-13T15:29:24.303Z,99524.59
2023-01-13T15:32:25.938Z,99530.84
2023-01-13T15:35:28.677Z,99539.63
2023-01-13T15:38:30.255Z,99537.94
2023-01-13T15:41:50.587Z,99529.66
2023-01-13T15:45:10.410Z,99524.25
2023-01-13T15:48:12.547Z,99536.59
2023-01-13T15:51:14.405Z,99543.50
2023-01-13T15:54:16.138Z,99538.59
2023-01-13T15:57:31.733Z,99551.44
2023-01-13T16:00:33.473Z,99555.66
2023-01-13T16:03:34.965Z,99560.72
2023-01-13T16:06:37.191Z,99575.59
2023-01-13T16:09:38.669Z,99581.56
2023-01-13T16:12:41.573Z,99592.03
2023-01-13T16:15:46.995Z,99596.94
2023-01-13T16:18:49.609Z,99592.19
2023-01-13T16:21:51.139Z,99594.72
2023-01-13T16:24:52.632Z,99596.22
2023-01-13T16:27:54.162Z,99596.75
2023-01-13T16:30:55.688Z,99613.81
2023-01-13T16:33:58.427Z,99610.78
2023-01-13T16:37:00.066Z,99613.13
2023-01-13T16:40:02.581Z,99619.22
2023-01-13T16:43:06.583Z,99627.00
2023-01-13T16:46:28.860Z,99633.75
2023-01-13T16:49:30.414Z,99623.75
2023-01-13T16:52:31.884Z,99624.59
2023-01-13T16:55:33.408Z,99631.72
2023-01-13T16:58:34.865Z,99642.22
2023-01-13T17:01:39.564Z,99642.69
2023-01-13T17:04:41.582Z,99638.78
2023-01-13T17:07:45.503Z,99644.72
2023-01-13T17:10:47.428Z,99638.94
2023-01-13T17:13:48.915Z,99652.34
2023-01-13T17:16:52.575Z,99659.06
2023-01-13T17:19:55.224Z,99647.03
2023-01-13T17:22:58.462Z,99662.31
2023-01-13T17:26:00.431Z,99692.94
2023-01-13T17:29:09.883Z,99681.06
2023-01-13T17:32:16.367Z,99686.50
2023-01-13T17:35:22.796Z,99686.69
2023-01-13T17:38:24.303Z,99695.13
2023-01-13T17:41:26.466Z,99707.84
2023-01-13T17:44:27.924Z,99702.94
2023-01-13T17:47:29.480Z,99706.69
2023-01-13T17:50:32.447Z,99720.06
2023-01-13T17:53:34.111Z,99713.78
2023-01-13T17:56:35.597Z,99724.63
2023-01-13T17:59:37.133Z,99730.22
2023-01-13T18:02:38.721Z,99734.63
2023-01-13T18:05:41.907Z,99740.88
2023-01-13T18:08:43.843Z,99746.31
2023-01-13T18:11:47.297Z,99737.34
2023-01-13T18:14:48.933Z,99737.16
2023-01-13T18:17:50.393Z,99731.56
2023-01-13T18:21:10.513Z,99738.69
2023-01-13T18:24:32.987Z,99739.38
2023-01-13T18:27:38.040Z,99744.59
2023-01-13T18:30:39.582Z,99756.28
2023-01-13T18:33:41.056Z,99763.22
2023-01-13T18:36:42.633Z,99787.28
2023-01-13T18:39:44.374Z,99785.22
2023-01-13T18:42:54.022Z,99770.66
2023-01-13T18:45:55.532Z,99784.03
2023-01-13T18:48:57.090Z,99796.41
2023-01-13T18:51:58.646Z,99786.41
2023-01-13T18:55:00.124Z,99801.50
2023-01-13T18:58:01.803Z,99809.44
2023-01-13T19:01:05.655Z,99790.97
2023-01-13T19:04:10.530Z,99816.91
2023-01-13T19:07:16.527Z,99791.47
2023-01-13T19:10:18.540Z,99791.31
2023-01-13T19:13:20.082Z,99805.50
2023-01-13T19:16:21.709Z,99817.22
2023-01-13T19:19:23.175Z,99824.31
2023-01-13T19:22:34.828Z,99825.00
2023-01-13T19:25:36.917Z,99828.56
2023-01-13T19:28:40.117Z,99840.91
2023-01-13T19:31:41.620Z,99839.06
2023-01-13T19:34:44.058Z,99839.72
2023-01-13T19:37:45.765Z,99838.88
2023-01-13T19:41:02.388Z,99848.34
2023-01-13T19:44:22.490Z,99844.81
2023-01-13T19:47:24.160Z,99843.97
2023-01-13T19:50:25.714Z,99850.22
2023-01-13T19:53:28.500Z,99863.63
2023-01-13T19:56:30.681Z,99873.63
2023-01-13T19:59:33.427Z,99878.03
2023-01-13T20:02:36.592Z,99867.84
2023-01-13T20:05:38.173Z,99879.38
2023-01-13T20:08:40.170Z,99885.50
2023-01-13T20:11:41.644Z,99892.63
2023-01-13T20:14:43.627Z,99890.75
2023-01-13T20:17:45.124Z,99893.31
2023-01-13T20:20:46.639Z,99888.72
2023-01-13T20:23:52.924Z,99895.81
2023-01-13T20:26:54.991Z,99893.94
2023-01-13T20:29:56.544Z,99892.94
2023-01-13T20:32:58.026Z,99903.81
2023-01-13T20:35:59.547Z,99912.63
2023-01-13T20:39:02.138Z,99912.44
2023-01-13T20:42:22.640Z,99924.13
2023-01-13T20:45:25.948Z,99919.56
2023-01-13T20:48:27.401Z,99931.41
2023-01-13T20:51:28.896Z,99932.94
2023-01-13T20:54:30.581Z,99928.19
2023-01-13T20:57:32.131Z,99939.03
2023-01-13T21:00:33.713Z,99938.88
2023-01-13T21:03:35.262Z,99957.00
2023-01-13T21:06:36.842Z,99944.13
2023-01-13T21:09:38.321Z,99961.44
2023-01-13T21:12:58.462Z,99956.84
2023-01-13T21:16:00.068Z,99967.53
2023-01-13T21:19:07.605Z,99981.09
2023-01-13T21:22:09.091Z,99982.78
2023-01-13T21:25:12.424Z,99978.03
2023-01-13T21:28:16.097Z,99980.75
2023-01-13T21:31:18.170Z,99987.84
2023-01-13T21:34:19.710Z,99980.75
2023-01-13T21:37:22.039Z,99996.84
2023-01-13T21:40:23.545Z,99997.72
2023-01-13T21:43:43.733Z,100015.84
2023-01-13T21:47:03.520Z,100008.56
2023-01-13T21:50:09.108Z,100000.22
2023-01-13T21:53:11.010Z,100012.13
2023-01-13T21:56:12.497Z,100035.50
2023-01-13T21:59:14.119Z,100020.06
2023-01-13T22:02:31.989Z,100028.41
2023-01-13T22:05:34.147Z,100041.97
2023-01-13T22:08:35.662Z,100050.25
2023-01-13T22:11:37.209Z,100057.41
2023-01-13T22:14:38.688Z,100054.84
2023-01-13T22:17:42.106Z,100066.53
2023-01-13T22:20:44.021Z,100066.72
2023-01-13T22:23:45.602Z,100053.16
2023-01-13T22:26:47.187Z,100072.16
2023-01-13T22:29:49.932Z,100072.31
2023-01-13T22:32:51.510Z,100087.75
2023-01-13T22:35:55.996Z,100094.16
2023-01-13T22:38:59.375Z,100093.34
2023-01-13T22:42:01.063Z,100090.81
2023-01-13T22:45:02.579Z,100099.94
2023-01-13T22:48:04.200Z,100097.22
2023-01-13T22:51:14.299Z,100114.34
2023-01-13T22:54:17.594Z,100117.25
2023-01-13T22:57:19.109Z,100111.97
2023-01-13T23:00:20.898Z,100116.06
2023-01-13T23:03:22.870Z,100119.22
2023-01-13T23:06:26.441Z,100116.31
2023-01-13T23:09:31.133Z,100126.59
2023-01-13T23:12:32.724Z,100129.09
2023-01-13T23:15:35.088Z,100124.69
2023-01-13T23:18:37.438Z,100125.66
2023-01-13T23:21:39.024Z,100128.16
2023-01-13T23:24:40.532Z,100132.91
2023-01-13T23:27:42.174Z,100124.56
2023-01-13T23:30:43.664Z,100128.91
2023-01-13T23:33:45.802Z,100139.38
2023-01-13T23:36:47.415Z,100138.03
2023-01-13T23:39:49.321Z,100136.47
2023-01-13T23:42:50.843Z,100138.66
2023-01-13T23:45:53.317Z,100145.69
2023-01-13T23:48:55.486Z,100137.88
2023-01-13T23:51:57.072Z,100140.28
2023-01-13T23:54:59.183Z,100138.66
2023-01-13T23:58:00.747Z,100139.72
